AirNav   TITAN Aviation Fuels
 
 1121 users online  

PS46 Graystrip Airport
Dublin, Pennsylvania, USA

GOING TO DUBLIN?


FAA INFORMATION EFFECTIVE 16 JUNE 2022

Location

FAA Identifier: PS46
Lat/Long: 40-21-44.3770N 075-10-48.6240W
40-21.739617N 075-10.810400W
40.3623269,-75.1801733
(estimated)
Elevation: 642 ft. / 196 m (estimated)
Variation: 12W (1985)
From city: 1 mile SE of DUBLIN, PA
Time zone: UTC -4 (UTC -5 during Standard Time)
Zip code: 18901

Airport Operations

Airport use: Private use, PERSONAL USE.
Activation date: 07/1985
Control tower: no
ARTCC: NEW YORK CENTER
FSS: WILLIAMSPORT FLIGHT SERVICE STATION
Attendance: CONTINUOUS
Wind indicator: yes
Segmented circle: no

Airport Communications

WX ASOS at DYL (3 nm SE): 118.875 (215-345-0392)
WX AWOS-3 at CKZ (5 nm W): 126.325 (215-257-7291)
WX AWOS-3 at UKT (10 nm NW): 119.475 (215-538-7610)
WX AWOS-3 at LOM (14 nm S): 118.925 (215-646-1068)
WX AWOS-3 at N40 (15 nm NE): 121.725
WX ASOS at TTN (18 nm E): 126.775 (609-538-8690)
WX ASOS at PNE (19 nm SE): PHONE 215-677-0146
WX ASOS at PTW (19 nm SW): 119.425 (610-495-0823)
WX AWOS-3 at XLL (19 nm NW): 127.875 (610-231-3111)

Airport Services

Runway Information

Runway 14/32

Dimensions: 1200 x 100 ft. / 366 x 30 m
Surface: turf
RUNWAY 14  RUNWAY 32
Traffic pattern: leftleft
Obstructions: treestrees

Airport Ownership and Management from official FAA records

Ownership: Privately-owned
Owner: TERENCE J. GRAY
STUMP ROAD, BOX 57
DUBLIN, PA 18917
Phone 215-249-3443
Manager: TERENCE J. GRAY
STUMP ROAD, BOX 57
DUBLIN, PA 18917
Phone 215-249-3443

Additional Remarks

FOR CD CTC PHILADELPHIA APCH AT 800-354-9884.

Instrument Procedures

There are no published instrument procedures at PS46.

Some nearby airports with instrument procedures:

KDYL - Doylestown Airport (3 nm SE)
KCKZ - Pennridge Airport (5 nm W)
KUKT - Quakertown Airport (10 nm NW)
KLOM - Wings Field Airport (14 nm S)
N40 - Sky Manor Airport (15 nm NE)
N85 - Alexandria Airport (15 nm NE)
KTTN - Trenton Mercer Airport (18 nm E)
KPNE - Northeast Philadelphia Airport (19 nm SE)
KPTW - Heritage Field Airport (19 nm SW)
KXLL - Allentown Queen City Municipal Airport (19 nm NW)
 
Loc | Ops | Rwys | IFR | FBO | Links
Com | Nav | Svcs | Stats | Notes
Area around PS46 (Graystrip Airport)
 
Road maps at: MapQuest Bing Google
 
Aerial photo
No photo
 
Sectional chart

 
Airport distance calculator
Flying to Graystrip Airport? Find the distance to fly.

From to PS46

Sunrise and sunset
Times for 25-Jun-2022
 Local
(UTC-4)
 Zulu
(UTC)
Morning civil twilight05:0009:00
Sunrise05:3309:33
Sunset20:3400:34
Evening civil twilight21:0701:07

Current date and time
Zulu (UTC)  25-Jun-2022 14:14:02
Local (UTC-4)  25-Jun-2022 10:14:02
 
METAR
KDYL 
3nm SE 
251354Z AUTO VRB03KT 10SM CLR 27/19 A3013 RMK AO2 SLP198 T02720194
KCKZ 
5nm W 
251355Z AUTO 02003KT 10SM CLR 26/21 A3016 RMK AO2
KUKT 
10nm NW 
251355Z AUTO 00000KT 10SM CLR 26/20 A3015 RMK A01
KLOM 
14nm S 
251355Z AUTO 25004KT 10SM CLR 26/20 A3015 RMK AO2 T02630201
KTTN 
17nm E 
ASOS 133.70 609-538-8690
251353Z 30004KT 10SM CLR 26/20 A3013 RMK AO2 SLP194 T02610200 $
KPNE 
18nm SE 
251354Z 28005KT 10SM CLR 28/20 A3014 RMK AO2 SLP206 T02780200
KPTW 
19nm SW 
251354Z AUTO 31004KT 10SM CLR 26/19 A3016 RMK AO2 SLP207 T02560194
KXLL 
19nm NW 
251355Z AUTO 00000KT 10SM CLR 25/20 A3015 RMK AO2
TAF
KTTN 
17nm E 
251120Z 2512/2612 27004KT P6SM FEW250 FM251400 26004KT P6SM FEW070 FM252200 19004KT P6SM SCT080 FM260200 VRB02KT P6SM SCT060
KPNE 
18nm SE 
251120Z 2512/2612 25004KT P6SM FEW250 FM251400 26006KT P6SM FEW070 FM252200 19008KT P6SM SCT080 FM260200 VRB02KT P6SM SCT060
NOTAMs
Click for the latest NOTAMs
NOTAMs are issued by the DoD/FAA and will open in a separate window not controlled by AirNav.

 

 
 

Would you like to see your business listed on this page?

 If your business provides an interesting product or service to pilots, flight crews, aircraft, or users of the Graystrip Airport, you should consider listing it here.  To start the listing process, click on the button below
 
Add a business
 

Other Pages about Graystrip Airport

Update a link
 
Copyright © AirNav, LLC. All rights reserved. Privacy Policy  Contact